Main page
METAR-TAF:

METAR-TAF

Airports :

Mashhad International Airport

Mashhad, Iran

latitude: 36-16N, longitude: 059-38E, elevation: 989 m

Current weather observation

The report was made 10 minutes ago, at 08:00 UTC
Wind 4 kt from the West
Temperature 32°C
Humidity 10%
Pressure 1016 hPa
Visibility 10 km or more
no clouds below 1500 m and no cumulonimbus

METAR: OIMM 250800Z 28004KT CAVOK 32/M03 Q1015 A2999

Time: 12:40 (08:10 UTC)

Forecast

The report was made 2 hours and 40 minutes ago, at 05:30 UTC
Forecast valid from 25 at 06 UTC to 26 at 12 UTC
Wind 8 kt from the East
Visibility 10 km or more
no clouds below 1500 m and no cumulonimbus
Temporary
from 25 at 09 UTC to 25 at 15 UTC
Wind 17 kt from the Northeast
Temporary
from 26 at 04 UTC to 26 at 12 UTC
Wind 17 kt from the Northeast

TAF: OIMM 250530Z 2506/2612 08004MPS CAVOK TEMPO 2509/2515 04009MPS TEMPO 2604/2612 04009MPS

Weather observations and forecasts of more than 4000 airports (METAR and TAF reports).

The available stations are represented by yellow and red dots on the map.

Hover mouse over dot to see the name of the station.

Then click to see weather observations and forecasts.

To change the map : click on the green buttons with a black cross to zoom in, on the green button with a dash to zoom out, or on the green arrows for adjacent maps.


METAR-TAF: